sensor_id;sensor_type;location;lat;lon;timestamp;temperature;humidity
65864;SHT30;52639;51.180;20.460;2023-04-06T00:02:25;-4.52;76.25
65864;SHT30;52639;51.180;20.460;2023-04-06T00:06:30;-4.54;75.92
65864;SHT30;52639;51.180;20.460;2023-04-06T00:10:33;-4.66;75.94
65864;SHT30;52639;51.180;20.460;2023-04-06T00:14:36;-4.91;76.52
65864;SHT30;52639;51.180;20.460;2023-04-06T00:18:39;-5.22;77.14
65864;SHT30;52639;51.180;20.460;2023-04-06T00:22:44;-5.39;77.16
65864;SHT30;52639;51.180;20.460;2023-04-06T00:26:46;-5.68;77.58
65864;SHT30;52639;51.180;20.460;2023-04-06T00:30:49;-5.70;78.48
65864;SHT30;52639;51.180;20.460;2023-04-06T00:34:53;-5.83;78.98
65864;SHT30;52639;51.180;20.460;2023-04-06T00:38:58;-5.93;79.34
65864;SHT30;52639;51.180;20.460;2023-04-06T00:43:00;-5.94;79.64
65864;SHT30;52639;51.180;20.460;2023-04-06T00:47:03;-6.02;78.41
65864;SHT30;52639;51.180;20.460;2023-04-06T00:51:06;-6.06;80.07
65864;SHT30;52639;51.180;20.460;2023-04-06T00:55:10;-6.20;78.78
65864;SHT30;52639;51.180;20.460;2023-04-06T00:59:13;-6.30;79.47
65864;SHT30;52639;51.180;20.460;2023-04-06T01:03:16;-6.31;80.68
65864;SHT30;52639;51.180;20.460;2023-04-06T01:07:19;-6.23;79.73
65864;SHT30;52639;51.180;20.460;2023-04-06T01:11:23;-6.35;78.60
65864;SHT30;52639;51.180;20.460;2023-04-06T01:15:26;-6.42;79.89
65864;SHT30;52639;51.180;20.460;2023-04-06T01:19:29;-6.45;78.82
65864;SHT30;52639;51.180;20.460;2023-04-06T01:23:33;-6.55;79.53
65864;SHT30;52639;51.180;20.460;2023-04-06T01:27:36;-6.68;78.89
65864;SHT30;52639;51.180;20.460;2023-04-06T01:31:39;-6.78;79.67
65864;SHT30;52639;51.180;20.460;2023-04-06T01:35:42;-6.79;79.38
65864;SHT30;52639;51.180;20.460;2023-04-06T01:39:46;-6.82;79.55
65864;SHT30;52639;51.180;20.460;2023-04-06T01:43:49;-6.81;79.61
65864;SHT30;52639;51.180;20.460;2023-04-06T01:47:55;-6.92;79.12
65864;SHT30;52639;51.180;20.460;2023-04-06T01:51:58;-7.05;79.52
65864;SHT30;52639;51.180;20.460;2023-04-06T01:56:05;-6.99;80.09
65864;SHT30;52639;51.180;20.460;2023-04-06T02:00:09;-7.01;79.86
65864;SHT30;52639;51.180;20.460;2023-04-06T02:04:12;-6.98;80.16
65864;SHT30;52639;51.180;20.460;2023-04-06T02:08:15;-7.12;79.64
65864;SHT30;52639;51.180;20.460;2023-04-06T02:12:20;-7.15;80.84
65864;SHT30;52639;51.180;20.460;2023-04-06T02:16:22;-7.13;80.30
65864;SHT30;52639;51.180;20.460;2023-04-06T02:20:25;-7.23;80.72
65864;SHT30;52639;51.180;20.460;2023-04-06T02:24:28;-7.20;80.56
65864;SHT30;52639;51.180;20.460;2023-04-06T02:28:32;-7.18;79.78
65864;SHT30;52639;51.180;20.460;2023-04-06T02:32:35;-7.11;79.72
65864;SHT30;52639;51.180;20.460;2023-04-06T02:36:38;-6.99;79.75
65864;SHT30;52639;51.180;20.460;2023-04-06T02:40:41;-6.72;79.40
65864;SHT30;52639;51.180;20.460;2023-04-06T02:44:45;-6.48;80.01
65864;SHT30;52639;51.180;20.460;2023-04-06T02:48:48;-6.31;79.98
65864;SHT30;52639;51.180;20.460;2023-04-06T02:52:52;-6.13;78.92
65864;SHT30;52639;51.180;20.460;2023-04-06T02:56:55;-5.96;78.54
65864;SHT30;52639;51.180;20.460;2023-04-06T03:00:59;-5.94;78.52
65864;SHT30;52639;51.180;20.460;2023-04-06T03:05:03;-5.86;78.57
65864;SHT30;52639;51.180;20.460;2023-04-06T03:09:06;-5.89;78.92
65864;SHT30;52639;51.180;20.460;2023-04-06T03:13:09;-5.82;79.11
65864;SHT30;52639;51.180;20.460;2023-04-06T03:17:13;-5.85;79.22
65864;SHT30;52639;51.180;20.460;2023-04-06T03:21:16;-5.89;79.37
65864;SHT30;52639;51.180;20.460;2023-04-06T03:25:20;-5.75;79.43
65864;SHT30;52639;51.180;20.460;2023-04-06T03:29:23;-5.68;79.14
65864;SHT30;52639;51.180;20.460;2023-04-06T03:33:27;-5.48;79.43
65864;SHT30;52639;51.180;20.460;2023-04-06T03:37:30;-5.32;79.25
65864;SHT30;52639;51.180;20.460;2023-04-06T03:41:32;-5.19;79.08
65864;SHT30;52639;51.180;20.460;2023-04-06T03:45:35;-5.04;79.04
65864;SHT30;52639;51.180;20.460;2023-04-06T03:49:39;-4.91;78.74
65864;SHT30;52639;51.180;20.460;2023-04-06T03:53:42;-4.85;78.85
65864;SHT30;52639;51.180;20.460;2023-04-06T03:57:45;-4.74;79.02
65864;SHT30;52639;51.180;20.460;2023-04-06T04:01:48;-4.66;80.51
65864;SHT30;52639;51.180;20.460;2023-04-06T04:05:52;-4.59;80.26
65864;SHT30;52639;51.180;20.460;2023-04-06T04:09:55;-4.49;79.53
65864;SHT30;52639;51.180;20.460;2023-04-06T04:13:57;-4.43;80.58
65864;SHT30;52639;51.180;20.460;2023-04-06T04:18:00;-4.39;81.30
65864;SHT30;52639;51.180;20.460;2023-04-06T04:22:04;-4.23;80.13
65864;SHT30;52639;51.180;20.460;2023-04-06T04:26:07;-4.08;80.05
65864;SHT30;52639;51.180;20.460;2023-04-06T04:30:11;-3.94;79.83
65864;SHT30;52639;51.180;20.460;2023-04-06T04:34:14;-3.70;79.06
65864;SHT30;52639;51.180;20.460;2023-04-06T04:38:19;-3.46;78.79
65864;SHT30;52639;51.180;20.460;2023-04-06T04:42:21;-3.27;78.96
65864;SHT30;52639;51.180;20.460;2023-04-06T04:46:24;-3.07;78.34
65864;SHT30;52639;51.180;20.460;2023-04-06T04:50:27;-2.89;78.25
65864;SHT30;52639;51.180;20.460;2023-04-06T04:54:31;-2.55;78.06
65864;SHT30;52639;51.180;20.460;2023-04-06T04:58:34;-2.25;77.45
65864;SHT30;52639;51.180;20.460;2023-04-06T05:02:37;-1.93;76.98
65864;SHT30;52639;51.180;20.460;2023-04-06T05:06:40;-1.47;76.41
65864;SHT30;52639;51.180;20.460;2023-04-06T05:10:44;-1.38;76.76
65864;SHT30;52639;51.180;20.460;2023-04-06T05:14:48;-1.29;76.99
65864;SHT30;52639;51.180;20.460;2023-04-06T05:18:50;-1.12;77.01
65864;SHT30;52639;51.180;20.460;2023-04-06T05:22:54;-1.05;77.07
65864;SHT30;52639;51.180;20.460;2023-04-06T05:26:58;-0.69;76.78
65864;SHT30;52639;51.180;20.460;2023-04-06T05:31:01;-0.47;76.54
65864;SHT30;52639;51.180;20.460;2023-04-06T05:35:04;-0.40;76.38
65864;SHT30;52639;51.180;20.460;2023-04-06T05:39:07;-0.31;76.31
65864;SHT30;52639;51.180;20.460;2023-04-06T05:43:11;-0.11;76.10
65864;SHT30;52639;51.180;20.460;2023-04-06T05:47:14;-0.02;76.01
65864;SHT30;52639;51.180;20.460;2023-04-06T05:51:17;0.15;75.55
65864;SHT30;52639;51.180;20.460;2023-04-06T05:55:19;0.64;74.96
65864;SHT30;52639;51.180;20.460;2023-04-06T05:59:24;0.66;74.36
65864;SHT30;52639;51.180;20.460;2023-04-06T06:03:27;0.88;73.81
65864;SHT30;52639;51.180;20.460;2023-04-06T06:07:30;0.91;73.01
65864;SHT30;52639;51.180;20.460;2023-04-06T06:11:32;1.12;72.82
65864;SHT30;52639;51.180;20.460;2023-04-06T06:15:37;1.26;73.06
65864;SHT30;52639;51.180;20.460;2023-04-06T06:19:39;1.33;71.54
65864;SHT30;52639;51.180;20.460;2023-04-06T06:23:42;1.43;71.98
65864;SHT30;52639;51.180;20.460;2023-04-06T06:27:45;2.04;71.87
65864;SHT30;52639;51.180;20.460;2023-04-06T06:31:50;2.32;70.30
65864;SHT30;52639;51.180;20.460;2023-04-06T06:35:52;2.68;69.50
65864;SHT30;52639;51.180;20.460;2023-04-06T06:39:57;2.75;69.08
65864;SHT30;52639;51.180;20.460;2023-04-06T06:44:05;3.24;68.69
65864;SHT30;52639;51.180;20.460;2023-04-06T06:48:10;3.43;68.89
65864;SHT30;52639;51.180;20.460;2023-04-06T06:52:13;3.43;68.27
65864;SHT30;52639;51.180;20.460;2023-04-06T06:56:16;3.79;68.85
65864;SHT30;52639;51.180;20.460;2023-04-06T07:00:19;3.92;67.09
65864;SHT30;52639;51.180;20.460;2023-04-06T07:04:24;4.48;65.52
65864;SHT30;52639;51.180;20.460;2023-04-06T07:08:27;4.54;64.20
65864;SHT30;52639;51.180;20.460;2023-04-06T07:12:30;4.83;64.06
65864;SHT30;52639;51.180;20.460;2023-04-06T07:16:33;5.86;62.69
65864;SHT30;52639;51.180;20.460;2023-04-06T07:20:37;5.78;61.69
65864;SHT30;52639;51.180;20.460;2023-04-06T07:24:40;6.37;59.57
65864;SHT30;52639;51.180;20.460;2023-04-06T07:28:43;4.76;60.40
65864;SHT30;52639;51.180;20.460;2023-04-06T07:32:45;5.79;61.95
65864;SHT30;52639;51.180;20.460;2023-04-06T07:36:50;8.13;56.45
65864;SHT30;52639;51.180;20.460;2023-04-06T07:40:54;9.36;54.83
65864;SHT30;52639;51.180;20.460;2023-04-06T07:44:57;10.20;51.99
65864;SHT30;52639;51.180;20.460;2023-04-06T07:49:00;9.33;45.59
65864;SHT30;52639;51.180;20.460;2023-04-06T07:53:05;6.90;57.73
65864;SHT30;52639;51.180;20.460;2023-04-06T07:57:07;4.87;52.67
65864;SHT30;52639;51.180;20.460;2023-04-06T08:01:10;4.15;59.17
65864;SHT30;52639;51.180;20.460;2023-04-06T08:05:13;3.95;57.38
65864;SHT30;52639;51.180;20.460;2023-04-06T08:09:18;4.01;60.44
65864;SHT30;52639;51.180;20.460;2023-04-06T08:13:21;4.33;60.74
65864;SHT30;52639;51.180;20.460;2023-04-06T08:17:23;4.05;59.73
65864;SHT30;52639;51.180;20.460;2023-04-06T08:21:26;3.85;59.05
65864;SHT30;52639;51.180;20.460;2023-04-06T08:25:31;4.13;56.88
65864;SHT30;52639;51.180;20.460;2023-04-06T08:29:34;3.58;59.90
65864;SHT30;52639;51.180;20.460;2023-04-06T08:33:37;3.26;61.69
65864;SHT30;52639;51.180;20.460;2023-04-06T08:37:40;3.11;63.05
65864;SHT30;52639;51.180;20.460;2023-04-06T08:41:44;2.85;64.21
65864;SHT30;52639;51.180;20.460;2023-04-06T08:45:47;3.03;64.74
65864;SHT30;52639;51.180;20.460;2023-04-06T08:49:51;3.06;65.86
65864;SHT30;52639;51.180;20.460;2023-04-06T08:53:55;3.44;65.30
65864;SHT30;52639;51.180;20.460;2023-04-06T08:58:00;3.91;66.10
65864;SHT30;52639;51.180;20.460;2023-04-06T09:02:04;3.55;66.23
65864;SHT30;52639;51.180;20.460;2023-04-06T09:06:08;2.76;69.10
65864;SHT30;52639;51.180;20.460;2023-04-06T09:10:12;2.72;69.61
65864;SHT30;52639;51.180;20.460;2023-04-06T09:14:33;3.10;67.82
65864;SHT30;52639;51.180;20.460;2023-04-06T09:18:37;3.07;69.87
65864;SHT30;52639;51.180;20.460;2023-04-06T09:22:41;2.93;69.34
65864;SHT30;52639;51.180;20.460;2023-04-06T09:26:45;3.19;70.24
65864;SHT30;52639;51.180;20.460;2023-04-06T09:30:51;3.41;69.47
65864;SHT30;52639;51.180;20.460;2023-04-06T09:34:54;3.09;71.07
65864;SHT30;52639;51.180;20.460;2023-04-06T09:39:07;3.09;70.41
65864;SHT30;52639;51.180;20.460;2023-04-06T09:43:10;3.27;69.20
65864;SHT30;52639;51.180;20.460;2023-04-06T09:47:15;3.35;68.50
65864;SHT30;52639;51.180;20.460;2023-04-06T09:51:19;3.26;67.70
65864;SHT30;52639;51.180;20.460;2023-04-06T09:55:25;3.31;68.63
65864;SHT30;52639;51.180;20.460;2023-04-06T09:59:37;3.63;67.58
65864;SHT30;52639;51.180;20.460;2023-04-06T10:03:49;3.61;67.87
65864;SHT30;52639;51.180;20.460;2023-04-06T10:07:57;3.71;67.96
65864;SHT30;52639;51.180;20.460;2023-04-06T10:12:02;3.43;70.46
65864;SHT30;52639;51.180;20.460;2023-04-06T10:16:06;3.24;71.43
65864;SHT30;52639;51.180;20.460;2023-04-06T10:20:16;2.93;72.95
65864;SHT30;52639;51.180;20.460;2023-04-06T10:24:22;2.72;73.51
65864;SHT30;52639;51.180;20.460;2023-04-06T10:28:25;2.62;73.54
65864;SHT30;52639;51.180;20.460;2023-04-06T10:32:35;2.52;74.08
65864;SHT30;52639;51.180;20.460;2023-04-06T10:36:40;2.55;74.28
65864;SHT30;52639;51.180;20.460;2023-04-06T10:40:43;2.85;74.21
65864;SHT30;52639;51.180;20.460;2023-04-06T10:44:49;3.00;73.21
65864;SHT30;52639;51.180;20.460;2023-04-06T10:48:52;2.86;75.99
65864;SHT30;52639;51.180;20.460;2023-04-06T10:53:01;2.36;77.56
65864;SHT30;52639;51.180;20.460;2023-04-06T10:57:04;2.41;80.77
65864;SHT30;52639;51.180;20.460;2023-04-06T11:01:11;2.31;78.35
65864;SHT30;52639;51.180;20.460;2023-04-06T11:05:14;2.20;79.96
65864;SHT30;52639;51.180;20.460;2023-04-06T11:09:26;2.22;77.47
65864;SHT30;52639;51.180;20.460;2023-04-06T11:13:37;2.38;77.60
65864;SHT30;52639;51.180;20.460;2023-04-06T11:17:40;2.44;78.25
65864;SHT30;52639;51.180;20.460;2023-04-06T11:21:44;2.35;80.37
65864;SHT30;52639;51.180;20.460;2023-04-06T11:25:51;2.44;78.71
65864;SHT30;52639;51.180;20.460;2023-04-06T11:29:54;2.34;79.02
65864;SHT30;52639;51.180;20.460;2023-04-06T11:33:57;2.05;81.39
65864;SHT30;52639;51.180;20.460;2023-04-06T11:38:03;1.87;82.02
65864;SHT30;52639;51.180;20.460;2023-04-06T11:42:08;2.00;80.94
65864;SHT30;52639;51.180;20.460;2023-04-06T11:46:17;1.81;81.23
65864;SHT30;52639;51.180;20.460;2023-04-06T11:50:20;1.70;82.37
65864;SHT30;52639;51.180;20.460;2023-04-06T11:54:30;1.59;81.05
65864;SHT30;52639;51.180;20.460;2023-04-06T11:58:35;1.51;80.67
65864;SHT30;52639;51.180;20.460;2023-04-06T12:02:38;1.47;81.26
65864;SHT30;52639;51.180;20.460;2023-04-06T12:06:41;1.77;80.57
65864;SHT30;52639;51.180;20.460;2023-04-06T12:10:43;1.73;80.66
65864;SHT30;52639;51.180;20.460;2023-04-06T12:14:48;1.66;81.73
65864;SHT30;52639;51.180;20.460;2023-04-06T12:18:51;1.64;82.21
65864;SHT30;52639;51.180;20.460;2023-04-06T12:22:54;1.71;80.93
65864;SHT30;52639;51.180;20.460;2023-04-06T12:26:57;1.68;80.79
65864;SHT30;52639;51.180;20.460;2023-04-06T12:31:01;1.51;85.22
65864;SHT30;52639;51.180;20.460;2023-04-06T12:35:04;1.50;86.21
65864;SHT30;52639;51.180;20.460;2023-04-06T12:39:09;1.66;84.74
65864;SHT30;52639;51.180;20.460;2023-04-06T12:43:13;1.60;83.43
65864;SHT30;52639;51.180;20.460;2023-04-06T12:47:18;1.54;84.70
65864;SHT30;52639;51.180;20.460;2023-04-06T12:51:20;1.44;85.14
65864;SHT30;52639;51.180;20.460;2023-04-06T12:55:24;1.42;83.69
65864;SHT30;52639;51.180;20.460;2023-04-06T12:59:27;1.27;85.61
65864;SHT30;52639;51.180;20.460;2023-04-06T13:03:37;1.22;85.98
65864;SHT30;52639;51.180;20.460;2023-04-06T13:07:40;1.27;85.10
65864;SHT30;52639;51.180;20.460;2023-04-06T13:11:43;1.30;87.86
65864;SHT30;52639;51.180;20.460;2023-04-06T13:15:47;1.13;87.03
65864;SHT30;52639;51.180;20.460;2023-04-06T13:19:51;1.13;85.84
65864;SHT30;52639;51.180;20.460;2023-04-06T13:23:54;1.17;86.83
65864;SHT30;52639;51.180;20.460;2023-04-06T13:27:57;1.10;87.49
65864;SHT30;52639;51.180;20.460;2023-04-06T13:32:00;1.16;88.90
65864;SHT30;52639;51.180;20.460;2023-04-06T13:36:06;1.20;87.18
65864;SHT30;52639;51.180;20.460;2023-04-06T13:40:10;1.22;88.58
65864;SHT30;52639;51.180;20.460;2023-04-06T13:44:13;1.09;86.96
65864;SHT30;52639;51.180;20.460;2023-04-06T13:48:16;1.07;87.40
65864;SHT30;52639;51.180;20.460;2023-04-06T13:52:21;1.05;87.36
65864;SHT30;52639;51.180;20.460;2023-04-06T13:56:24;1.00;86.95
65864;SHT30;52639;51.180;20.460;2023-04-06T14:00:27;0.99;87.17
65864;SHT30;52639;51.180;20.460;2023-04-06T14:04:30;0.91;87.66
65864;SHT30;52639;51.180;20.460;2023-04-06T14:08:34;0.86;87.01
65864;SHT30;52639;51.180;20.460;2023-04-06T14:12:37;0.88;86.75
65864;SHT30;52639;51.180;20.460;2023-04-06T14:16:41;0.89;87.88
65864;SHT30;52639;51.180;20.460;2023-04-06T14:20:45;0.91;88.71
65864;SHT30;52639;51.180;20.460;2023-04-06T14:24:49;0.88;89.40
65864;SHT30;52639;51.180;20.460;2023-04-06T14:28:52;0.91;89.06
65864;SHT30;52639;51.180;20.460;2023-04-06T14:32:56;0.96;89.39
65864;SHT30;52639;51.180;20.460;2023-04-06T14:37:00;1.05;90.32
65864;SHT30;52639;51.180;20.460;2023-04-06T14:41:04;1.07;90.73
65864;SHT30;52639;51.180;20.460;2023-04-06T14:45:09;0.99;92.27
65864;SHT30;52639;51.180;20.460;2023-04-06T14:49:11;0.95;91.47
65864;SHT30;52639;51.180;20.460;2023-04-06T14:53:14;0.89;90.49
65864;SHT30;52639;51.180;20.460;2023-04-06T14:57:19;0.82;89.06
65864;SHT30;52639;51.180;20.460;2023-04-06T15:01:22;0.82;90.78
65864;SHT30;52639;51.180;20.460;2023-04-06T15:05:25;0.82;90.80
65864;SHT30;52639;51.180;20.460;2023-04-06T15:09:28;0.81;89.11
65864;SHT30;52639;51.180;20.460;2023-04-06T15:13:33;0.75;89.02
65864;SHT30;52639;51.180;20.460;2023-04-06T15:17:35;0.78;88.02
65864;SHT30;52639;51.180;20.460;2023-04-06T15:21:39;0.75;89.56
65864;SHT30;52639;51.180;20.460;2023-04-06T15:25:42;0.76;89.99
65864;SHT30;52639;51.180;20.460;2023-04-06T15:29:46;0.76;88.28
65864;SHT30;52639;51.180;20.460;2023-04-06T15:33:49;0.78;87.40
65864;SHT30;52639;51.180;20.460;2023-04-06T15:37:52;0.75;89.60
65864;SHT30;52639;51.180;20.460;2023-04-06T15:41:55;0.72;90.90
65864;SHT30;52639;51.180;20.460;2023-04-06T15:46:00;0.72;89.20
65864;SHT30;52639;51.180;20.460;2023-04-06T15:50:04;0.69;90.03
65864;SHT30;52639;51.180;20.460;2023-04-06T15:54:07;0.69;90.02
65864;SHT30;52639;51.180;20.460;2023-04-06T15:58:10;0.68;88.33
65864;SHT30;52639;51.180;20.460;2023-04-06T16:02:14;0.68;87.78
65864;SHT30;52639;51.180;20.460;2023-04-06T16:06:17;0.69;90.50
65864;SHT30;52639;51.180;20.460;2023-04-06T16:10:20;0.65;88.50
65864;SHT30;52639;51.180;20.460;2023-04-06T16:14:23;0.65;88.51
65864;SHT30;52639;51.180;20.460;2023-04-06T16:18:28;0.66;89.12
65864;SHT30;52639;51.180;20.460;2023-04-06T16:22:32;0.65;90.44
65864;SHT30;52639;51.180;20.460;2023-04-06T16:26:35;0.65;89.72
65864;SHT30;52639;51.180;20.460;2023-04-06T16:30:39;0.65;90.08
65864;SHT30;52639;51.180;20.460;2023-04-06T16:34:44;0.68;89.41
65864;SHT30;52639;51.180;20.460;2023-04-06T16:38:48;0.71;89.50
65864;SHT30;52639;51.180;20.460;2023-04-06T16:42:51;0.66;89.85
65864;SHT30;52639;51.180;20.460;2023-04-06T16:46:55;0.68;88.52
65864;SHT30;52639;51.180;20.460;2023-04-06T16:51:05;0.66;87.44
65864;SHT30;52639;51.180;20.460;2023-04-06T16:55:10;0.65;87.66
65864;SHT30;52639;51.180;20.460;2023-04-06T16:59:13;0.66;87.83
65864;SHT30;52639;51.180;20.460;2023-04-06T17:03:16;0.64;91.38
65864;SHT30;52639;51.180;20.460;2023-04-06T17:07:21;0.65;90.89
65864;SHT30;52639;51.180;20.460;2023-04-06T17:11:28;0.66;89.31
65864;SHT30;52639;51.180;20.460;2023-04-06T17:15:31;0.68;90.49
65864;SHT30;52639;51.180;20.460;2023-04-06T17:19:34;0.68;90.84
65864;SHT30;52639;51.180;20.460;2023-04-06T17:23:39;0.71;90.85
65864;SHT30;52639;51.180;20.460;2023-04-06T17:27:42;0.71;90.61
65864;SHT30;52639;51.180;20.460;2023-04-06T17:31:47;0.72;88.88
65864;SHT30;52639;51.180;20.460;2023-04-06T17:35:55;0.73;87.92
65864;SHT30;52639;51.180;20.460;2023-04-06T17:40:06;0.73;88.97
65864;SHT30;52639;51.180;20.460;2023-04-06T17:44:10;0.75;90.96
65864;SHT30;52639;51.180;20.460;2023-04-06T17:48:13;0.76;90.31
65864;SHT30;52639;51.180;20.460;2023-04-06T17:52:16;0.75;91.74
65864;SHT30;52639;51.180;20.460;2023-04-06T17:56:21;0.79;89.43
65864;SHT30;52639;51.180;20.460;2023-04-06T18:00:25;0.78;90.73
65864;SHT30;52639;51.180;20.460;2023-04-06T18:04:28;0.78;90.07
65864;SHT30;52639;51.180;20.460;2023-04-06T18:08:31;0.81;89.29
65864;SHT30;52639;51.180;20.460;2023-04-06T18:12:36;0.81;89.52
65864;SHT30;52639;51.180;20.460;2023-04-06T18:16:38;0.82;91.40
65864;SHT30;52639;51.180;20.460;2023-04-06T18:20:43;0.85;89.92
65864;SHT30;52639;51.180;20.460;2023-04-06T18:24:55;0.83;89.69
65864;SHT30;52639;51.180;20.460;2023-04-06T18:29:02;0.83;90.74
65864;SHT30;52639;51.180;20.460;2023-04-06T18:33:06;0.85;91.06
65864;SHT30;52639;51.180;20.460;2023-04-06T18:37:09;0.83;91.88
65864;SHT30;52639;51.180;20.460;2023-04-06T18:41:12;0.88;90.90
65864;SHT30;52639;51.180;20.460;2023-04-06T18:45:17;0.86;89.83
65864;SHT30;52639;51.180;20.460;2023-04-06T18:49:20;0.86;89.57
65864;SHT30;52639;51.180;20.460;2023-04-06T18:53:23;0.88;89.17
65864;SHT30;52639;51.180;20.460;2023-04-06T18:57:26;0.91;90.74
65864;SHT30;52639;51.180;20.460;2023-04-06T19:01:32;0.92;89.20
65864;SHT30;52639;51.180;20.460;2023-04-06T19:05:35;0.91;91.16
65864;SHT30;52639;51.180;20.460;2023-04-06T19:09:38;0.91;89.35
65864;SHT30;52639;51.180;20.460;2023-04-06T19:13:42;0.92;90.85
65864;SHT30;52639;51.180;20.460;2023-04-06T19:17:51;0.93;92.43
65864;SHT30;52639;51.180;20.460;2023-04-06T19:21:54;0.93;91.51
65864;SHT30;52639;51.180;20.460;2023-04-06T19:25:57;0.97;91.27
65864;SHT30;52639;51.180;20.460;2023-04-06T19:30:01;0.97;90.72
65864;SHT30;52639;51.180;20.460;2023-04-06T19:34:05;0.96;90.19
65864;SHT30;52639;51.180;20.460;2023-04-06T19:38:08;0.99;93.24
65864;SHT30;52639;51.180;20.460;2023-04-06T19:42:11;0.97;92.97
65864;SHT30;52639;51.180;20.460;2023-04-06T19:46:15;1.00;91.30
65864;SHT30;52639;51.180;20.460;2023-04-06T19:50:20;1.00;91.18
65864;SHT30;52639;51.180;20.460;2023-04-06T19:54:24;0.97;91.01
65864;SHT30;52639;51.180;20.460;2023-04-06T19:58:27;1.02;90.93
65864;SHT30;52639;51.180;20.460;2023-04-06T20:02:30;0.99;90.23
65864;SHT30;52639;51.180;20.460;2023-04-06T20:06:34;1.00;90.02
65864;SHT30;52639;51.180;20.460;2023-04-06T20:10:37;1.00;90.79
65864;SHT30;52639;51.180;20.460;2023-04-06T20:14:40;1.03;91.28
65864;SHT30;52639;51.180;20.460;2023-04-06T20:18:43;1.06;92.31
65864;SHT30;52639;51.180;20.460;2023-04-06T20:22:47;1.06;92.96
65864;SHT30;52639;51.180;20.460;2023-04-06T20:26:50;1.06;93.62
65864;SHT30;52639;51.180;20.460;2023-04-06T20:30:54;1.07;93.50
65864;SHT30;52639;51.180;20.460;2023-04-06T20:34:57;1.10;92.76
65864;SHT30;52639;51.180;20.460;2023-04-06T20:39:01;1.10;92.98
65864;SHT30;52639;51.180;20.460;2023-04-06T20:43:04;1.12;93.62
65864;SHT30;52639;51.180;20.460;2023-04-06T20:47:10;1.12;91.53
65864;SHT30;52639;51.180;20.460;2023-04-06T20:51:20;1.13;90.84
65864;SHT30;52639;51.180;20.460;2023-04-06T20:55:26;1.15;92.54
65864;SHT30;52639;51.180;20.460;2023-04-06T20:59:29;1.12;93.77
65864;SHT30;52639;51.180;20.460;2023-04-06T21:03:32;1.15;94.45
65864;SHT30;52639;51.180;20.460;2023-04-06T21:07:35;1.15;94.08
65864;SHT30;52639;51.180;20.460;2023-04-06T21:11:40;1.16;94.67
65864;SHT30;52639;51.180;20.460;2023-04-06T21:15:43;1.17;93.42
65864;SHT30;52639;51.180;20.460;2023-04-06T21:19:47;1.20;93.35
65864;SHT30;52639;51.180;20.460;2023-04-06T21:23:53;1.19;92.48
65864;SHT30;52639;51.180;20.460;2023-04-06T21:27:57;1.22;91.90
65864;SHT30;52639;51.180;20.460;2023-04-06T21:32:00;1.22;91.00
65864;SHT30;52639;51.180;20.460;2023-04-06T21:36:04;1.22;91.26
65864;SHT30;52639;51.180;20.460;2023-04-06T21:40:08;1.25;91.81
65864;SHT30;52639;51.180;20.460;2023-04-06T21:44:12;1.26;90.31
65864;SHT30;52639;51.180;20.460;2023-04-06T21:48:15;1.27;90.75
65864;SHT30;52639;51.180;20.460;2023-04-06T21:52:18;1.25;92.13
65864;SHT30;52639;51.180;20.460;2023-04-06T21:56:21;1.26;90.94
65864;SHT30;52639;51.180;20.460;2023-04-06T22:00:26;1.25;91.82
65864;SHT30;52639;51.180;20.460;2023-04-06T22:04:29;1.26;90.88
65864;SHT30;52639;51.180;20.460;2023-04-06T22:08:32;1.29;92.69
65864;SHT30;52639;51.180;20.460;2023-04-06T22:12:35;1.29;91.52
65864;SHT30;52639;51.180;20.460;2023-04-06T22:16:40;1.32;91.53
65864;SHT30;52639;51.180;20.460;2023-04-06T22:20:43;1.30;92.03
65864;SHT30;52639;51.180;20.460;2023-04-06T22:24:46;1.32;90.59
65864;SHT30;52639;51.180;20.460;2023-04-06T22:28:48;1.32;91.34
65864;SHT30;52639;51.180;20.460;2023-04-06T22:32:53;1.30;91.24
65864;SHT30;52639;51.180;20.460;2023-04-06T22:36:55;1.33;90.19
65864;SHT30;52639;51.180;20.460;2023-04-06T22:40:58;1.35;90.26
65864;SHT30;52639;51.180;20.460;2023-04-06T22:45:01;1.30;91.12
65864;SHT30;52639;51.180;20.460;2023-04-06T22:49:05;1.36;91.86
65864;SHT30;52639;51.180;20.460;2023-04-06T22:53:08;1.33;93.04
65864;SHT30;52639;51.180;20.460;2023-04-06T22:57:11;1.35;91.72
65864;SHT30;52639;51.180;20.460;2023-04-06T23:01:13;1.35;92.33
65864;SHT30;52639;51.180;20.460;2023-04-06T23:05:18;1.33;91.76
65864;SHT30;52639;51.180;20.460;2023-04-06T23:09:20;1.32;92.91
65864;SHT30;52639;51.180;20.460;2023-04-06T23:13:23;1.35;91.36
65864;SHT30;52639;51.180;20.460;2023-04-06T23:17:26;1.35;92.21
65864;SHT30;52639;51.180;20.460;2023-04-06T23:21:31;1.35;92.43
65864;SHT30;52639;51.180;20.460;2023-04-06T23:25:33;1.36;94.16
65864;SHT30;52639;51.180;20.460;2023-04-06T23:29:36;1.33;94.04
65864;SHT30;52639;51.180;20.460;2023-04-06T23:33:39;1.33;92.28
65864;SHT30;52639;51.180;20.460;2023-04-06T23:37:44;1.35;93.27
65864;SHT30;52639;51.180;20.460;2023-04-06T23:41:46;1.36;92.63
65864;SHT30;52639;51.180;20.460;2023-04-06T23:45:49;1.35;92.09
65864;SHT30;52639;51.180;20.460;2023-04-06T23:49:52;1.35;91.34
65864;SHT30;52639;51.180;20.460;2023-04-06T23:53:56;1.37;91.80
65864;SHT30;52639;51.180;20.460;2023-04-06T23:57:59;1.37;91.47
